createdAt,value
2023-02-16T00:01:19.565Z,-3.32
2023-02-16T00:03:47.557Z,-3.35
2023-02-16T00:06:16.429Z,-3.34
2023-02-16T00:08:47.835Z,-3.45
2023-02-16T00:11:35.330Z,-3.49
2023-02-16T00:14:03.781Z,-3.62
2023-02-16T00:16:33.156Z,-3.68
2023-02-16T00:19:01.150Z,-3.68
2023-02-16T00:21:29.162Z,-3.58
2023-02-16T00:24:16.187Z,-3.47
2023-02-16T00:26:44.532Z,-3.41
2023-02-16T00:29:15.403Z,-3.41
2023-02-16T00:31:44.906Z,-3.43
2023-02-16T00:34:25.500Z,-3.47
2023-02-16T00:36:53.528Z,-3.48
2023-02-16T00:39:21.450Z,-3.52
2023-02-16T00:41:53.841Z,-3.47
2023-02-16T00:44:23.474Z,-3.55
2023-02-16T00:46:52.812Z,-3.57
2023-02-16T00:49:21.766Z,-3.64
2023-02-16T00:51:49.800Z,-3.65
2023-02-16T00:54:17.665Z,-3.60
2023-02-16T00:56:46.398Z,-3.64
2023-02-16T00:59:17.519Z,-3.53
2023-02-16T01:01:45.934Z,-3.65
2023-02-16T01:04:20.763Z,-3.55
2023-02-16T01:07:06.387Z,-3.48
2023-02-16T01:09:52.288Z,-3.48
2023-02-16T01:12:22.138Z,-3.55
2023-02-16T01:14:53.137Z,-3.55
2023-02-16T01:17:21.166Z,-3.59
2023-02-16T01:19:50.598Z,-3.54
2023-02-16T01:22:18.543Z,-3.50
2023-02-16T01:24:46.478Z,-3.45
2023-02-16T01:27:15.125Z,-3.44
2023-02-16T01:29:43.074Z,-3.45
2023-02-16T01:32:13.345Z,-3.47
2023-02-16T01:34:41.324Z,-3.45
2023-02-16T01:37:15.520Z,-3.48
2023-02-16T01:39:43.443Z,-3.65
2023-02-16T01:42:14.886Z,-3.59
2023-02-16T01:44:45.911Z,-3.48
2023-02-16T01:47:20.320Z,-3.43
2023-02-16T01:49:48.210Z,-3.48
2023-02-16T01:52:24.379Z,-3.52
2023-02-16T01:54:54.097Z,-3.53
2023-02-16T01:57:26.987Z,-3.46
2023-02-16T02:00:05.452Z,-3.41
2023-02-16T02:02:36.183Z,-3.46
2023-02-16T02:05:25.277Z,-3.49
2023-02-16T02:07:58.193Z,-3.55
2023-02-16T02:10:29.763Z,-3.65
2023-02-16T02:13:00.863Z,-3.79
2023-02-16T02:15:31.405Z,-3.76
2023-02-16T02:17:59.334Z,-3.66
2023-02-16T02:20:51.183Z,-3.64
2023-02-16T02:23:33.962Z,-3.57
2023-02-16T02:26:08.259Z,-3.60
2023-02-16T02:28:41.547Z,-3.60
2023-02-16T02:31:11.931Z,-3.59
2023-02-16T02:33:49.974Z,-3.55
2023-02-16T02:36:23.837Z,-3.60
2023-02-16T02:38:58.871Z,-3.67
2023-02-16T02:41:50.173Z,-3.65
2023-02-16T02:44:21.604Z,-3.64
2023-02-16T02:46:49.977Z,-4.04
2023-02-16T02:49:17.955Z,-3.66
2023-02-16T02:51:45.960Z,-3.71
2023-02-16T02:54:33.653Z,-3.72
2023-02-16T02:57:21.066Z,-3.64
2023-02-16T03:00:11.137Z,-3.72
2023-02-16T03:02:41.098Z,-3.94
2023-02-16T03:05:10.632Z,-3.98
2023-02-16T03:07:50.759Z,-3.91
2023-02-16T03:10:38.111Z,-3.93
2023-02-16T03:13:07.236Z,-3.91
2023-02-16T03:15:37.671Z,-4.06
2023-02-16T03:18:24.998Z,-4.01
2023-02-16T03:21:10.782Z,-3.94
2023-02-16T03:23:59.096Z,-3.92
2023-02-16T03:26:45.534Z,-3.93
2023-02-16T03:29:18.240Z,-3.97
2023-02-16T03:31:48.093Z,-4.03
2023-02-16T03:34:16.384Z,-4.12
2023-02-16T03:36:45.921Z,-4.09
2023-02-16T03:39:14.031Z,-4.03
2023-02-16T03:41:43.778Z,-4.00
2023-02-16T03:44:12.132Z,-4.01
2023-02-16T03:46:40.410Z,-4.14
2023-02-16T03:49:09.855Z,-4.15
2023-02-16T03:51:38.166Z,-4.07
2023-02-16T03:54:06.059Z,-4.09
2023-02-16T03:56:34.055Z,-4.01
2023-02-16T03:59:02.371Z,-3.97
2023-02-16T04:01:30.517Z,-3.94
2023-02-16T04:03:58.450Z,-3.96
2023-02-16T04:06:27.846Z,-4.01
2023-02-16T04:08:55.994Z,-4.02
2023-02-16T04:11:41.675Z,-4.03
2023-02-16T04:14:09.632Z,-4.05
2023-02-16T04:16:37.508Z,-3.96
2023-02-16T04:19:06.379Z,-4.05
2023-02-16T04:21:35.800Z,-4.10
2023-02-16T04:24:05.881Z,-4.05
2023-02-16T04:26:33.991Z,-3.94
2023-02-16T04:29:01.966Z,-3.86
2023-02-16T04:31:30.116Z,-3.85
2023-02-16T04:33:58.141Z,-3.75
2023-02-16T04:36:26.136Z,-3.83
2023-02-16T04:38:55.499Z,-3.80
2023-02-16T04:41:23.453Z,-3.81
2023-02-16T04:43:51.388Z,-3.82
2023-02-16T04:46:20.443Z,-3.91
2023-02-16T04:48:48.679Z,-3.83
2023-02-16T04:51:16.701Z,-3.85
2023-02-16T04:53:44.684Z,-3.86
2023-02-16T04:56:14.412Z,-3.85
2023-02-16T04:58:42.544Z,-3.80
2023-02-16T05:01:10.612Z,-3.85
2023-02-16T05:03:38.597Z,-3.88
2023-02-16T05:06:24.942Z,-3.89
2023-02-16T05:08:52.960Z,-3.85
2023-02-16T05:11:39.651Z,-3.99
2023-02-16T05:14:24.881Z,-3.86
2023-02-16T05:16:54.226Z,-3.90
2023-02-16T05:19:22.249Z,-3.80
2023-02-16T05:21:50.161Z,-3.85
2023-02-16T05:24:18.191Z,-3.84
2023-02-16T05:26:47.558Z,-3.77
2023-02-16T05:29:15.631Z,-3.85
2023-02-16T05:31:43.750Z,-3.80
2023-02-16T05:34:11.921Z,-3.90
2023-02-16T05:36:39.852Z,-3.81
2023-02-16T05:39:08.008Z,-3.74
2023-02-16T05:41:36.046Z,-3.79
2023-02-16T05:44:05.838Z,-3.72
2023-02-16T05:46:35.364Z,-3.65
2023-02-16T05:49:03.812Z,-3.71
2023-02-16T05:51:32.606Z,-3.58
2023-02-16T05:54:00.594Z,-3.56
2023-02-16T05:56:28.889Z,-3.43
2023-02-16T05:58:57.407Z,-3.34
2023-02-16T06:01:28.904Z,-3.30
2023-02-16T06:03:57.723Z,-3.39
2023-02-16T06:06:26.139Z,-3.53
2023-02-16T06:08:54.613Z,-3.65
2023-02-16T06:11:38.825Z,-3.55
2023-02-16T06:14:10.365Z,-3.49
2023-02-16T06:16:41.927Z,-3.42
2023-02-16T06:19:11.052Z,-3.28
2023-02-16T06:21:40.707Z,-3.18
2023-02-16T06:24:09.904Z,-3.12
2023-02-16T06:26:39.930Z,-3.08
2023-02-16T06:29:08.629Z,-3.20
2023-02-16T06:31:37.291Z,-3.20
2023-02-16T06:34:07.063Z,-3.02
2023-02-16T06:36:37.723Z,-3.11
2023-02-16T06:39:05.693Z,-2.99
2023-02-16T06:41:35.914Z,-2.88
2023-02-16T06:44:05.148Z,-2.93
2023-02-16T06:46:33.354Z,-2.79
2023-02-16T06:49:01.872Z,-2.70
2023-02-16T06:51:31.644Z,-2.61
2023-02-16T06:53:59.733Z,-2.50
2023-02-16T06:56:28.028Z,-2.48
2023-02-16T06:58:56.075Z,-2.47
2023-02-16T07:01:26.076Z,-2.41
2023-02-16T07:03:54.944Z,-2.49
2023-02-16T07:06:24.448Z,-2.43
2023-02-16T07:08:54.791Z,-2.19
2023-02-16T07:11:23.075Z,-2.11
2023-02-16T07:13:51.209Z,-2.07
2023-02-16T07:16:19.231Z,-2.28
2023-02-16T07:18:48.652Z,-2.22
2023-02-16T07:21:16.693Z,-2.19
2023-02-16T07:23:44.738Z,-2.20
2023-02-16T07:26:14.357Z,-2.18
2023-02-16T07:28:42.488Z,-2.12
2023-02-16T07:31:11.388Z,-1.95
2023-02-16T07:33:39.624Z,-1.79
2023-02-16T07:36:08.316Z,-1.61
2023-02-16T07:38:36.456Z,-1.55
2023-02-16T07:41:07.834Z,-1.71
2023-02-16T07:43:38.637Z,-1.78
2023-02-16T07:46:07.036Z,-1.73
2023-02-16T07:48:35.073Z,-1.79
2023-02-16T07:51:03.548Z,-1.88
2023-02-16T07:53:31.819Z,-1.82
2023-02-16T07:55:59.754Z,-1.93
2023-02-16T07:58:30.431Z,-1.81
2023-02-16T08:01:07.865Z,-1.84
2023-02-16T08:03:35.832Z,-1.83
2023-02-16T08:06:04.016Z,-1.79
2023-02-16T08:08:32.419Z,-1.74
2023-02-16T08:11:00.432Z,-1.80
2023-02-16T08:16:26.237Z,-1.77
2023-02-16T08:18:54.718Z,-1.98
2023-02-16T08:21:23.746Z,-1.91
2023-02-16T08:23:54.718Z,-2.02
2023-02-16T08:26:23.273Z,-1.89
2023-02-16T08:28:51.772Z,-1.78
2023-02-16T08:31:20.238Z,-1.79
2023-02-16T08:33:49.627Z,-1.86
2023-02-16T08:36:19.169Z,-1.90
2023-02-16T08:38:50.536Z,-1.77
2023-02-16T08:41:18.818Z,-1.52
2023-02-16T08:43:47.039Z,-1.40
2023-02-16T08:46:15.199Z,-1.32
2023-02-16T08:48:45.438Z,-1.34
2023-02-16T08:51:17.779Z,-1.28
2023-02-16T08:53:46.807Z,-1.18
2023-02-16T08:56:16.949Z,-1.01
2023-02-16T08:58:44.869Z,-0.95
2023-02-16T09:01:13.236Z,-0.89
2023-02-16T09:03:43.082Z,-0.81
2023-02-16T09:06:12.402Z,-0.85
2023-02-16T09:08:42.104Z,-0.84
2023-02-16T09:11:12.388Z,-1.00
2023-02-16T09:13:41.268Z,-1.09
2023-02-16T09:16:10.710Z,-1.09
2023-02-16T09:18:39.196Z,-1.04
2023-02-16T09:21:07.870Z,-1.20
2023-02-16T09:23:35.936Z,-1.32
2023-02-16T09:26:07.630Z,-1.48
2023-02-16T09:28:35.945Z,-1.19
2023-02-16T09:31:10.160Z,-1.06
2023-02-16T09:33:38.335Z,-0.98
2023-02-16T09:36:07.220Z,-0.88
2023-02-16T09:38:35.500Z,-0.67
2023-02-16T09:41:10.605Z,-0.54
2023-02-16T09:43:45.673Z,-0.35
2023-02-16T09:46:15.567Z,-0.30
2023-02-16T09:48:46.016Z,-0.44
2023-02-16T09:51:20.990Z,-0.32
2023-02-16T09:53:55.833Z,-0.38
2023-02-16T09:56:28.784Z,-0.35
2023-02-16T09:58:59.486Z,-0.44
2023-02-16T10:01:33.892Z,-0.52
2023-02-16T10:04:07.379Z,-0.59
2023-02-16T10:06:44.360Z,-0.74
2023-02-16T10:09:14.036Z,-0.88
2023-02-16T10:11:46.987Z,-1.19
2023-02-16T10:14:19.647Z,-1.23
2023-02-16T10:16:49.680Z,-1.27
2023-02-16T10:19:21.180Z,-1.27
2023-02-16T10:21:51.436Z,-1.36
2023-02-16T10:24:19.597Z,-1.26
2023-02-16T10:26:52.060Z,-1.23
2023-02-16T10:29:22.261Z,-1.24
2023-02-16T10:31:57.094Z,-1.32
2023-02-16T10:34:34.714Z,-1.38
2023-02-16T10:37:18.213Z,-1.17
2023-02-16T10:39:49.785Z,-1.23
2023-02-16T10:42:24.194Z,-0.98
2023-02-16T10:44:55.824Z,-0.91
2023-02-16T10:47:29.467Z,-0.70
2023-02-16T10:49:57.445Z,-0.78
2023-02-16T10:52:26.171Z,-0.95
2023-02-16T10:54:54.281Z,-0.90
2023-02-16T10:57:27.789Z,-1.19
2023-02-16T10:59:58.578Z,-1.29
2023-02-16T11:02:27.624Z,-1.30
2023-02-16T11:04:56.293Z,-1.40
2023-02-16T11:07:25.695Z,-1.60
2023-02-16T11:09:54.940Z,-1.59
2023-02-16T11:12:29.839Z,-1.56
2023-02-16T11:15:00.226Z,-1.61
2023-02-16T11:17:28.643Z,-1.57
2023-02-16T11:20:01.741Z,-1.58
2023-02-16T11:22:33.328Z,-1.46
2023-02-16T11:25:23.770Z,-1.33
2023-02-16T11:27:55.232Z,-1.32
2023-02-16T11:30:29.674Z,-1.14
2023-02-16T11:32:57.886Z,-1.01
2023-02-16T11:35:25.970Z,-0.88
2023-02-16T11:37:54.084Z,-0.89
2023-02-16T11:40:23.900Z,-1.20
2023-02-16T11:42:55.245Z,-1.13
2023-02-16T11:45:25.887Z,-1.13
2023-02-16T11:47:55.302Z,-1.28
2023-02-16T11:50:25.954Z,-1.11
2023-02-16T11:52:54.735Z,-1.10
2023-02-16T11:55:27.085Z,-1.12
2023-02-16T11:57:57.232Z,-1.36
2023-02-16T12:00:26.942Z,-1.44
2023-02-16T12:03:08.200Z,-1.45
2023-02-16T12:05:41.131Z,-1.49
2023-02-16T12:08:19.121Z,-1.64
2023-02-16T12:10:55.504Z,-1.70
2023-02-16T12:13:30.285Z,-1.65
2023-02-16T12:16:02.106Z,-1.63
2023-02-16T12:18:38.487Z,-1.57
2023-02-16T12:21:11.086Z,-1.54
2023-02-16T12:23:41.660Z,-1.59
2023-02-16T12:26:27.817Z,-1.61
2023-02-16T12:29:01.681Z,-1.66
2023-02-16T12:31:34.496Z,-1.56
2023-02-16T12:34:08.422Z,-1.57
2023-02-16T12:36:43.088Z,-1.56
2023-02-16T12:39:18.296Z,-1.65
2023-02-16T12:41:53.721Z,-1.91
2023-02-16T12:44:26.369Z,-1.96
2023-02-16T12:46:58.530Z,-2.05
2023-02-16T12:49:28.050Z,-2.21
2023-02-16T12:51:59.386Z,-2.11
2023-02-16T12:54:29.610Z,-2.14
2023-02-16T12:57:02.259Z,-2.24
2023-02-16T12:59:36.470Z,-2.22
2023-02-16T13:02:06.638Z,-2.18
2023-02-16T13:04:38.592Z,-2.28
2023-02-16T13:07:09.686Z,-2.42
2023-02-16T13:09:39.144Z,-2.49
2023-02-16T13:12:10.495Z,-2.41
2023-02-16T13:14:42.448Z,-2.53
2023-02-16T13:17:13.781Z,-2.79
2023-02-16T13:19:42.278Z,-2.70
2023-02-16T13:22:20.851Z,-2.76
2023-02-16T13:24:58.440Z,-2.71
2023-02-16T13:27:31.481Z,-2.67
2023-02-16T13:30:06.075Z,-2.67
2023-02-16T13:32:52.356Z,-2.49
2023-02-16T13:35:31.179Z,-2.57
2023-02-16T13:38:02.987Z,-2.71
2023-02-16T13:40:57.971Z,-2.61
2023-02-16T13:43:30.874Z,-2.60
2023-02-16T13:46:00.516Z,-2.59
2023-02-16T13:48:30.690Z,-2.61
2023-02-16T13:50:59.855Z,-2.74
2023-02-16T13:53:31.437Z,-2.73
2023-02-16T13:56:13.819Z,-2.69
2023-02-16T13:58:42.054Z,-2.73
2023-02-16T14:01:28.874Z,-2.72
2023-02-16T14:03:58.252Z,-2.67
2023-02-16T14:06:32.489Z,-2.93
2023-02-16T14:09:15.538Z,-2.68
2023-02-16T14:11:59.585Z,-2.70
2023-02-16T14:14:31.639Z,-2.85
2023-02-16T14:17:14.317Z,-2.89
2023-02-16T14:19:49.944Z,-2.98
2023-02-16T14:22:19.672Z,-2.86
2023-02-16T14:24:52.912Z,-2.89
2023-02-16T14:27:35.830Z,-3.02
2023-02-16T14:30:04.617Z,-2.99
2023-02-16T14:32:38.742Z,-2.93
2023-02-16T14:35:09.496Z,-2.95
2023-02-16T14:37:39.607Z,-2.88
2023-02-16T14:40:15.663Z,-3.02
2023-02-16T14:42:54.469Z,-3.20
2023-02-16T14:45:49.441Z,-3.23
2023-02-16T14:48:25.818Z,-3.07
2023-02-16T14:51:02.873Z,-2.95
2023-02-16T14:53:51.260Z,-2.88
2023-02-16T14:56:32.535Z,-2.81
2023-02-16T14:59:02.100Z,-2.70
2023-02-16T15:01:30.454Z,-2.85
2023-02-16T15:03:59.156Z,-3.11
2023-02-16T15:06:35.016Z,-3.27
2023-02-16T15:09:06.623Z,-3.34
2023-02-16T15:11:35.836Z,-3.37
2023-02-16T15:14:08.584Z,-3.45
2023-02-16T15:16:40.643Z,-3.47
2023-02-16T15:19:13.778Z,-3.57
2023-02-16T15:21:43.123Z,-3.52
2023-02-16T15:24:22.011Z,-3.39
2023-02-16T15:26:55.032Z,-3.45
2023-02-16T15:29:26.507Z,-3.39
2023-02-16T15:31:55.258Z,-3.38
2023-02-16T15:34:33.398Z,-3.46
2023-02-16T15:37:03.732Z,-3.62
2023-02-16T15:39:45.220Z,-3.53
2023-02-16T15:42:22.194Z,-3.56
2023-02-16T15:44:50.331Z,-3.37
2023-02-16T15:47:22.668Z,-3.27
2023-02-16T15:49:50.857Z,-3.18
2023-02-16T15:52:22.412Z,-3.15
2023-02-16T15:54:51.249Z,-3.16
2023-02-16T15:57:21.784Z,-3.16
2023-02-16T15:59:50.930Z,-3.11
2023-02-16T16:02:19.835Z,-3.03
2023-02-16T16:04:48.964Z,-3.01
2023-02-16T16:07:19.337Z,-3.05
2023-02-16T16:09:52.031Z,-3.02
2023-02-16T16:12:21.097Z,-3.12
2023-02-16T16:14:51.599Z,-3.16
2023-02-16T16:17:22.849Z,-3.14
2023-02-16T16:19:51.327Z,-3.13
2023-02-16T16:22:31.905Z,-3.08
2023-02-16T16:25:01.415Z,-3.10
2023-02-16T16:27:31.838Z,-3.08
2023-02-16T16:30:26.906Z,-3.14
2023-02-16T16:33:02.474Z,-3.16
2023-02-16T16:35:40.437Z,-3.20
2023-02-16T16:38:21.453Z,-3.29
2023-02-16T16:40:53.047Z,-3.30
2023-02-16T16:43:22.009Z,-3.39
2023-02-16T16:45:50.786Z,-3.44
2023-02-16T16:48:20.890Z,-3.52
2023-02-16T16:50:49.444Z,-3.55
2023-02-16T16:53:40.456Z,-3.58
2023-02-16T16:56:14.121Z,-3.64
2023-02-16T16:58:42.135Z,-3.65
2023-02-16T17:01:11.122Z,-3.63
2023-02-16T17:03:39.011Z,-3.65
2023-02-16T17:06:09.005Z,-3.62
2023-02-16T17:08:37.539Z,-3.86
2023-02-16T17:11:06.478Z,-3.77
2023-02-16T17:13:35.893Z,-3.70
2023-02-16T17:16:05.648Z,-3.85
2023-02-16T17:18:34.449Z,-3.94
2023-02-16T17:21:02.342Z,-4.03
2023-02-16T17:23:30.591Z,-4.01
2023-02-16T17:25:58.987Z,-4.04
2023-02-16T17:28:27.093Z,-4.00
2023-02-16T17:30:56.731Z,-3.95
2023-02-16T17:33:24.662Z,-4.04
2023-02-16T17:35:52.648Z,-4.11
2023-02-16T17:38:21.311Z,-4.22
2023-02-16T17:40:49.565Z,-4.24
2023-02-16T17:43:18.394Z,-4.24
2023-02-16T17:45:47.157Z,-4.38
2023-02-16T17:48:18.190Z,-4.39
2023-02-16T17:50:46.525Z,-4.40
2023-02-16T17:53:15.539Z,-4.43
2023-02-16T17:55:43.881Z,-4.45
2023-02-16T17:58:12.152Z,-4.45
2023-02-16T18:00:40.350Z,-4.50
2023-02-16T18:03:08.839Z,-4.58
2023-02-16T18:05:38.239Z,-4.66
2023-02-16T18:08:06.630Z,-4.73
2023-02-16T18:10:36.352Z,-4.87
2023-02-16T18:13:04.488Z,-4.98
2023-02-16T18:15:32.747Z,-5.07
2023-02-16T18:18:00.709Z,-5.11
2023-02-16T18:20:28.865Z,-5.23
2023-02-16T18:22:58.309Z,-5.28
2023-02-16T18:25:26.487Z,-5.43
2023-02-16T18:27:54.959Z,-5.56
2023-02-16T18:30:23.046Z,-5.74
2023-02-16T18:32:51.479Z,-5.85
2023-02-16T18:35:19.597Z,-6.01
2023-02-16T18:37:48.091Z,-6.16
2023-02-16T18:40:19.750Z,-6.07
2023-02-16T18:42:48.325Z,-6.00
2023-02-16T18:45:16.390Z,-5.94
2023-02-16T18:47:45.290Z,-6.16
2023-02-16T18:50:13.330Z,-6.01
2023-02-16T18:52:42.601Z,-5.97
2023-02-16T18:55:11.017Z,-5.95
2023-02-16T18:57:40.551Z,-5.92
2023-02-16T19:00:10.081Z,-5.96
2023-02-16T19:02:38.546Z,-5.94
2023-02-16T19:05:07.777Z,-5.85
2023-02-16T19:07:36.405Z,-5.82
2023-02-16T19:10:08.487Z,-5.86
2023-02-16T19:12:36.419Z,-5.76
2023-02-16T19:15:06.927Z,-5.75
2023-02-16T19:17:35.004Z,-5.80
2023-02-16T19:20:02.993Z,-5.93
2023-02-16T19:22:33.797Z,-5.97
2023-02-16T19:25:01.785Z,-5.84
2023-02-16T19:27:31.012Z,-5.83
2023-02-16T19:29:59.109Z,-5.69
2023-02-16T19:32:28.402Z,-5.62
2023-02-16T19:34:56.378Z,-5.59
2023-02-16T19:37:24.368Z,-5.59
2023-02-16T19:39:52.311Z,-5.51
2023-02-16T19:42:21.629Z,-5.49
2023-02-16T19:44:50.108Z,-5.51
2023-02-16T19:47:18.017Z,-5.54
2023-02-16T19:49:47.382Z,-5.55
2023-02-16T19:52:15.268Z,-5.54
2023-02-16T19:54:43.187Z,-5.54
2023-02-16T19:57:11.201Z,-5.48
2023-02-16T19:59:39.427Z,-5.65
2023-02-16T20:02:07.497Z,-5.62
2023-02-16T20:04:35.520Z,-5.55
2023-02-16T20:07:05.265Z,-5.53
2023-02-16T20:09:33.295Z,-5.48
2023-02-16T20:12:01.305Z,-5.44
2023-02-16T20:14:29.559Z,-5.38
2023-02-16T20:16:57.514Z,-5.33
2023-02-16T20:19:25.417Z,-5.31
2023-02-16T20:21:53.451Z,-5.24
2023-02-16T20:24:22.769Z,-5.24
2023-02-16T20:26:52.185Z,-5.21
2023-02-16T20:29:21.035Z,-5.22
2023-02-16T20:31:50.622Z,-5.20
2023-02-16T20:34:19.269Z,-5.23
2023-02-16T20:36:47.267Z,-5.23
2023-02-16T20:39:15.258Z,-5.25
2023-02-16T20:41:44.843Z,-5.22
2023-02-16T20:44:12.980Z,-5.19
2023-02-16T20:46:41.139Z,-5.20
2023-02-16T20:49:09.835Z,-5.18
2023-02-16T20:51:38.165Z,-5.22
2023-02-16T20:54:06.246Z,-5.30
2023-02-16T20:56:34.172Z,-5.35
2023-02-16T20:59:03.666Z,-5.31
2023-02-16T21:01:32.647Z,-5.36
2023-02-16T21:04:01.139Z,-5.31
2023-02-16T21:06:29.555Z,-5.27
2023-02-16T21:08:57.722Z,-5.30
2023-02-16T21:11:25.961Z,-5.37
2023-02-16T21:13:54.070Z,-5.40
2023-02-16T21:16:23.572Z,-5.43
2023-02-16T21:18:51.969Z,-5.45
2023-02-16T21:21:19.778Z,-5.43
2023-02-16T21:23:49.815Z,-5.42
2023-02-16T21:26:18.673Z,-5.44
2023-02-16T21:28:46.753Z,-5.42
2023-02-16T21:31:16.413Z,-5.39
2023-02-16T21:33:45.873Z,-5.34
2023-02-16T21:36:14.792Z,-5.30
2023-02-16T21:38:43.164Z,-5.27
2023-02-16T21:41:28.845Z,-5.28
2023-02-16T21:43:58.839Z,-5.25
2023-02-16T21:46:27.100Z,-5.24
2023-02-16T21:48:57.348Z,-5.35
2023-02-16T21:51:26.565Z,-5.32
2023-02-16T21:53:54.616Z,-5.27
2023-02-16T21:56:30.671Z,-5.25
2023-02-16T21:58:59.197Z,-5.28
2023-02-16T22:01:28.766Z,-5.32
2023-02-16T22:03:59.438Z,-5.31
2023-02-16T22:06:28.546Z,-5.32
2023-02-16T22:08:56.495Z,-5.35
2023-02-16T22:11:24.400Z,-5.32
2023-02-16T22:13:54.745Z,-5.30
2023-02-16T22:16:23.147Z,-5.25
2023-02-16T22:18:51.549Z,-5.24
2023-02-16T22:21:21.170Z,-5.21
2023-02-16T22:23:49.190Z,-5.14
2023-02-16T22:26:21.579Z,-5.12
2023-02-16T22:28:50.643Z,-5.16
2023-02-16T22:31:19.479Z,-5.19
2023-02-16T22:33:47.753Z,-5.24
2023-02-16T22:36:16.130Z,-5.23
2023-02-16T22:38:45.938Z,-5.21
2023-02-16T22:41:14.033Z,-5.18
2023-02-16T22:43:42.424Z,-5.17
2023-02-16T22:46:13.293Z,-5.17
2023-02-16T22:48:41.557Z,-5.14
2023-02-16T22:51:14.576Z,-5.16
2023-02-16T22:53:42.754Z,-5.11
2023-02-16T22:56:13.966Z,-5.08
2023-02-16T22:58:42.117Z,-5.09
2023-02-16T23:01:12.534Z,-5.16
2023-02-16T23:03:40.636Z,-5.16
2023-02-16T23:06:12.719Z,-5.17
2023-02-16T23:08:40.609Z,-5.16
2023-02-16T23:11:08.570Z,-5.16
2023-02-16T23:13:38.269Z,-5.16
2023-02-16T23:16:07.850Z,-5.24
2023-02-16T23:18:35.879Z,-5.42
2023-02-16T23:21:07.742Z,-5.46
2023-02-16T23:23:35.887Z,-5.53
2023-02-16T23:26:04.657Z,-5.62
2023-02-16T23:28:32.847Z,-5.78
2023-02-16T23:31:02.262Z,-5.89
2023-02-16T23:33:30.346Z,-5.93
2023-02-16T23:35:58.413Z,-6.03
2023-02-16T23:38:26.493Z,-6.01
2023-02-16T23:40:58.580Z,-5.98
2023-02-16T23:43:26.707Z,-5.89
2023-02-16T23:45:55.238Z,-5.92
2023-02-16T23:48:24.906Z,-5.88
2023-02-16T23:50:53.564Z,-5.84
2023-02-16T23:53:22.728Z,-5.78
2023-02-16T23:55:57.932Z,-5.73
2023-02-16T23:58:26.607Z,-5.71
